createdAt,value
2019-02-11T00:01:40.129Z,1.23
2019-02-11T00:04:08.401Z,1.13
2019-02-11T00:06:36.682Z,1.03
2019-02-11T00:09:07.565Z,1.00
2019-02-11T00:11:35.868Z,1.07
2019-02-11T00:14:04.136Z,1.83
2019-02-11T00:16:32.443Z,1.57
2019-02-11T00:19:00.707Z,1.63
2019-02-11T00:21:28.979Z,2.40
2019-02-11T00:23:57.248Z,1.37
2019-02-11T00:26:25.524Z,1.63
2019-02-11T00:28:53.813Z,1.90
2019-02-11T00:31:22.139Z,1.23
2019-02-11T00:33:50.444Z,1.93
2019-02-11T00:36:18.775Z,2.27
2019-02-11T00:38:47.044Z,1.83
2019-02-11T00:41:15.311Z,2.00
2019-02-11T00:43:43.562Z,2.40
2019-02-11T00:46:11.859Z,2.40
2019-02-11T00:48:40.144Z,1.30
2019-02-11T00:51:08.452Z,1.70
2019-02-11T00:53:36.712Z,1.77
2019-02-11T00:56:04.967Z,2.47
2019-02-11T00:58:33.240Z,1.60
2019-02-11T01:01:01.565Z,1.70
2019-02-11T01:03:29.850Z,1.90
2019-02-11T01:05:58.171Z,2.20
2019-02-11T01:08:26.435Z,3.10
2019-02-11T01:10:54.712Z,1.60
2019-02-11T01:13:27.856Z,1.60
2019-02-11T01:15:52.991Z,2.33
2019-02-11T01:18:21.267Z,2.17
2019-02-11T01:20:49.583Z,1.67
2019-02-11T01:23:17.844Z,1.67
2019-02-11T01:25:46.106Z,2.20
2019-02-11T01:28:14.376Z,2.30
2019-02-11T01:30:42.639Z,2.30
2019-02-11T01:33:10.920Z,2.40
2019-02-11T01:35:39.175Z,2.27
2019-02-11T01:38:07.450Z,2.27
2019-02-11T01:40:35.742Z,2.90
2019-02-11T01:43:04.071Z,2.60
2019-02-11T01:45:32.341Z,2.63
2019-02-11T01:48:00.600Z,2.90
2019-02-11T01:50:28.951Z,3.03
2019-02-11T01:52:57.219Z,2.13
2019-02-11T01:55:25.494Z,2.37
2019-02-11T01:57:53.789Z,2.30
2019-02-11T02:00:22.080Z,2.43
2019-02-11T02:02:50.341Z,2.33
2019-02-11T02:05:18.601Z,2.13
2019-02-11T02:07:46.870Z,2.00
2019-02-11T02:10:15.415Z,3.00
2019-02-11T02:12:43.770Z,2.37
2019-02-11T02:15:14.496Z,3.13
2019-02-11T02:17:42.752Z,2.67
2019-02-11T02:20:13.675Z,2.10
2019-02-11T02:22:41.985Z,2.23
2019-02-11T02:25:11.851Z,4.37
2019-02-11T02:27:40.104Z,2.73
2019-02-11T02:30:11.428Z,2.47
2019-02-11T02:32:39.675Z,2.83
2019-02-11T02:35:07.967Z,1.83
2019-02-11T02:37:36.254Z,2.10
2019-02-11T02:40:07.160Z,2.87
2019-02-11T02:42:35.428Z,3.80
2019-02-11T02:45:04.468Z,2.00
2019-02-11T02:47:32.758Z,1.73
2019-02-11T02:50:01.033Z,1.80
2019-02-11T02:52:29.286Z,4.70
2019-02-11T02:54:57.548Z,2.30
2019-02-11T02:57:25.869Z,1.90
2019-02-11T02:59:54.128Z,2.37
2019-02-11T03:02:22.411Z,2.47
2019-02-11T03:04:50.676Z,2.40
2019-02-11T03:07:18.941Z,1.93
2019-02-11T03:09:47.206Z,2.43
2019-02-11T03:12:15.505Z,3.23
2019-02-11T03:14:43.767Z,2.30
2019-02-11T03:17:12.042Z,2.50
2019-02-11T03:19:40.304Z,2.70
2019-02-11T03:22:08.654Z,2.70
2019-02-11T03:24:36.931Z,2.43
2019-02-11T03:27:05.194Z,2.90
2019-02-11T03:29:33.457Z,2.50
2019-02-11T03:32:01.744Z,2.60
2019-02-11T03:34:30.008Z,2.60
2019-02-11T03:36:58.292Z,2.33
2019-02-11T03:39:26.556Z,2.10
2019-02-11T03:41:54.827Z,2.37
2019-02-11T03:44:23.082Z,2.30
2019-02-11T03:46:51.364Z,2.10
2019-02-11T03:49:19.645Z,1.90
2019-02-11T03:51:47.919Z,2.80
2019-02-11T03:54:16.196Z,2.10
2019-02-11T03:56:44.532Z,1.73
2019-02-11T03:59:12.888Z,1.47
2019-02-11T04:01:41.152Z,1.50
2019-02-11T04:04:09.535Z,1.40
2019-02-11T04:06:37.792Z,0.90
2019-02-11T04:09:06.637Z,1.23
2019-02-11T04:11:37.573Z,1.20
2019-02-11T04:14:05.841Z,1.23
2019-02-11T04:16:34.104Z,1.20
2019-02-11T04:19:02.481Z,0.90
2019-02-11T04:21:30.814Z,0.77
2019-02-11T04:23:59.054Z,0.80
2019-02-11T04:26:27.387Z,0.70
2019-02-11T04:28:55.659Z,1.13
2019-02-11T04:31:23.918Z,1.47
2019-02-11T04:33:52.206Z,1.10
2019-02-11T04:36:20.553Z,0.83
2019-02-11T04:38:48.800Z,1.43
2019-02-11T04:41:20.057Z,1.33
2019-02-11T04:43:48.310Z,1.47
2019-02-11T04:46:16.579Z,1.13
2019-02-11T04:48:44.834Z,0.80
2019-02-11T04:51:13.103Z,1.27
2019-02-11T04:53:41.362Z,2.37
2019-02-11T04:56:09.626Z,1.37
2019-02-11T04:58:37.889Z,2.40
2019-02-11T05:01:06.146Z,1.50
2019-02-11T05:03:34.408Z,1.10
2019-02-11T05:06:02.673Z,1.03
2019-02-11T05:08:30.932Z,1.57
2019-02-11T05:10:59.206Z,1.20
2019-02-11T05:13:27.533Z,1.60
2019-02-11T05:15:55.795Z,4.97
2019-02-11T05:18:24.057Z,2.17
2019-02-11T05:20:52.329Z,1.20
2019-02-11T05:23:20.592Z,3.00
2019-02-11T05:25:48.888Z,1.30
2019-02-11T05:28:17.143Z,2.70
2019-02-11T05:30:45.408Z,1.40
2019-02-11T05:33:13.717Z,1.30
2019-02-11T05:35:41.963Z,1.97
2019-02-11T05:38:10.247Z,1.00
2019-02-11T05:40:38.508Z,3.10
2019-02-11T05:43:06.844Z,1.27
2019-02-11T05:45:35.100Z,4.57
2019-02-11T05:48:03.418Z,1.37
2019-02-11T05:50:31.690Z,2.47
2019-02-11T05:52:59.934Z,1.50
2019-02-11T05:55:28.205Z,2.90
2019-02-11T05:57:56.475Z,1.40
2019-02-11T06:00:24.746Z,1.30
2019-02-11T06:02:52.991Z,2.63
2019-02-11T06:05:21.269Z,2.60
2019-02-11T06:07:49.537Z,1.60
2019-02-11T06:10:17.798Z,4.30
2019-02-11T06:12:46.052Z,1.67
2019-02-11T06:15:14.333Z,3.47
2019-02-11T06:17:42.592Z,2.47
2019-02-11T06:20:10.913Z,2.30
2019-02-11T06:22:39.189Z,4.17
2019-02-11T06:25:08.310Z,2.50
2019-02-11T06:27:36.539Z,2.60
2019-02-11T06:30:29.692Z,5.00
2019-02-11T06:32:57.948Z,5.00
2019-02-11T06:35:26.215Z,3.70
2019-02-11T06:37:54.514Z,3.13
2019-02-11T06:40:22.761Z,3.47
2019-02-11T06:42:50.999Z,3.67
2019-02-11T06:45:19.255Z,3.43
2019-02-11T06:47:47.530Z,3.27
2019-02-11T06:50:16.415Z,3.87
2019-02-11T06:52:44.690Z,3.63
2019-02-11T06:55:13.019Z,4.93
2019-02-11T06:57:41.278Z,5.17
2019-02-11T07:00:12.497Z,3.60
2019-02-11T07:02:40.770Z,4.30
2019-02-11T07:05:09.092Z,4.20
2019-02-11T07:07:37.371Z,4.50
2019-02-11T07:10:13.046Z,4.20
2019-02-11T07:12:41.346Z,4.17
2019-02-11T07:15:21.547Z,5.50
2019-02-11T07:17:43.842Z,5.37
2019-02-11T07:20:12.158Z,8.90
2019-02-11T07:22:40.425Z,5.00
2019-02-11T07:25:09.477Z,4.80
2019-02-11T07:27:37.789Z,4.60
2019-02-11T07:30:13.744Z,4.30
2019-02-11T07:32:41.993Z,6.10
2019-02-11T07:35:10.338Z,6.27
2019-02-11T07:37:38.598Z,6.47
2019-02-11T07:40:10.263Z,8.80
2019-02-11T07:42:42.714Z,6.30
2019-02-11T07:45:13.000Z,4.43
2019-02-11T07:47:41.272Z,4.90
2019-02-11T07:50:09.605Z,5.57
2019-02-11T07:52:37.893Z,6.73
2019-02-11T07:55:06.306Z,5.27
2019-02-11T07:57:34.590Z,7.03
2019-02-11T08:00:02.885Z,8.43
2019-02-11T08:02:33.540Z,4.13
2019-02-11T08:05:01.812Z,5.13
2019-02-11T08:07:32.444Z,3.53
2019-02-11T08:10:02.937Z,5.27
2019-02-11T08:12:31.264Z,7.00
2019-02-11T08:14:59.530Z,4.20
2019-02-11T08:17:27.791Z,4.47
2019-02-11T08:19:56.070Z,8.43
2019-02-11T08:22:24.328Z,6.43
2019-02-11T08:24:52.626Z,4.80
2019-02-11T08:27:20.899Z,3.57
2019-02-11T08:29:49.143Z,6.87
2019-02-11T08:32:17.485Z,8.00
2019-02-11T08:34:45.736Z,5.73
2019-02-11T08:37:14.017Z,4.47
2019-02-11T08:39:42.263Z,4.07
2019-02-11T08:42:10.555Z,3.63
2019-02-11T08:44:38.804Z,3.90
2019-02-11T08:47:07.161Z,4.40
2019-02-11T08:49:35.436Z,5.63
2019-02-11T08:52:03.694Z,4.80
2019-02-11T08:54:31.968Z,5.20
2019-02-11T08:57:00.226Z,4.90
2019-02-11T08:59:28.528Z,6.30
2019-02-11T09:01:56.786Z,6.30
2019-02-11T09:04:25.061Z,4.20
2019-02-11T09:06:53.331Z,5.30
2019-02-11T09:09:21.596Z,8.00
2019-02-11T09:11:49.845Z,5.60
2019-02-11T09:14:18.177Z,7.50
2019-02-11T09:16:46.445Z,3.50
2019-02-11T09:19:14.690Z,4.13
2019-02-11T09:21:43.059Z,5.03
2019-02-11T09:24:11.324Z,6.83
2019-02-11T09:26:39.576Z,6.93
2019-02-11T09:29:07.845Z,7.00
2019-02-11T09:31:36.140Z,4.33
2019-02-11T09:34:04.464Z,3.33
2019-02-11T09:36:32.715Z,4.73
2019-02-11T09:39:01.002Z,3.43
2019-02-11T09:41:29.243Z,6.40
2019-02-11T09:43:57.577Z,5.73
2019-02-11T09:46:25.841Z,5.90
2019-02-11T09:48:54.190Z,5.77
2019-02-11T09:51:24.175Z,6.73
2019-02-11T09:53:52.470Z,8.03
2019-02-11T09:56:20.740Z,5.37
2019-02-11T09:58:49.041Z,5.10
2019-02-11T10:01:17.430Z,4.83
2019-02-11T10:03:45.686Z,5.53
2019-02-11T10:06:14.049Z,3.23
2019-02-11T10:08:42.324Z,6.30
2019-02-11T10:11:10.592Z,3.93
2019-02-11T10:13:38.927Z,3.27
2019-02-11T10:16:12.427Z,3.50
2019-02-11T10:18:37.224Z,7.00
2019-02-11T10:21:05.484Z,6.53
2019-02-11T10:23:33.781Z,2.97
2019-02-11T10:26:02.047Z,4.13
2019-02-11T10:28:30.800Z,4.70
2019-02-11T10:30:59.078Z,3.63
2019-02-11T10:33:27.356Z,2.50
2019-02-11T10:35:55.657Z,3.27
2019-02-11T10:38:23.913Z,3.20
2019-02-11T10:40:52.257Z,4.93
2019-02-11T10:43:20.524Z,3.73
2019-02-11T10:45:48.790Z,5.13
2019-02-11T10:48:17.051Z,7.27
2019-02-11T10:50:45.343Z,4.47
2019-02-11T10:53:13.602Z,3.40
2019-02-11T10:55:41.872Z,5.30
2019-02-11T10:58:10.131Z,7.63
2019-02-11T11:00:39.031Z,6.40
2019-02-11T11:03:07.326Z,4.33
2019-02-11T11:05:35.590Z,5.10
2019-02-11T11:08:03.911Z,4.97
2019-02-11T11:10:37.331Z,4.97
2019-02-11T11:13:05.631Z,2.37
2019-02-11T11:15:33.949Z,3.93
2019-02-11T11:18:02.201Z,4.20
2019-02-11T11:20:30.658Z,2.60
2019-02-11T11:22:58.929Z,3.30
2019-02-11T11:25:27.203Z,6.87
2019-02-11T11:27:55.481Z,7.03
2019-02-11T11:30:23.771Z,6.17
2019-02-11T11:32:52.074Z,3.43
2019-02-11T11:35:20.570Z,3.47
2019-02-11T11:37:48.833Z,9.03
2019-02-11T11:40:23.674Z,6.23
2019-02-11T11:42:52.003Z,5.50
2019-02-11T11:45:21.038Z,5.53
2019-02-11T11:47:49.272Z,5.77
2019-02-11T11:50:18.119Z,4.67
2019-02-11T11:52:46.370Z,2.43
2019-02-11T11:55:18.659Z,6.20
2019-02-11T11:57:46.897Z,3.60
2019-02-11T12:00:21.351Z,3.10
2019-02-11T12:03:01.817Z,9.17
2019-02-11T12:05:19.851Z,4.53
2019-02-11T12:07:48.187Z,4.90
2019-02-11T12:10:16.600Z,3.40
2019-02-11T12:12:44.969Z,3.60
2019-02-11T12:15:15.885Z,4.30
2019-02-11T12:17:45.601Z,3.83
2019-02-11T12:20:15.391Z,4.83
2019-02-11T12:22:45.526Z,6.23
2019-02-11T12:25:15.835Z,4.63
2019-02-11T12:27:44.090Z,5.20
2019-02-11T12:30:23.521Z,4.13
2019-02-11T12:32:55.027Z,3.73
2019-02-11T12:35:21.915Z,6.87
2019-02-11T12:37:50.713Z,3.43
2019-02-11T12:40:19.201Z,10.43
2019-02-11T12:42:47.561Z,6.10
2019-02-11T12:45:21.970Z,4.97
2019-02-11T12:47:50.323Z,5.50
2019-02-11T12:50:18.944Z,6.73
2019-02-11T12:52:47.377Z,4.13
2019-02-11T12:55:16.847Z,4.70
2019-02-11T12:57:45.117Z,2.80
2019-02-11T13:00:21.539Z,4.97
2019-02-11T13:02:49.946Z,3.60
2019-02-11T13:05:22.258Z,4.97
2019-02-11T13:07:48.649Z,3.13
2019-02-11T13:10:19.826Z,3.17
2019-02-11T13:12:48.096Z,2.43
2019-02-11T13:15:34.667Z,5.20
2019-02-11T13:17:47.587Z,2.33
2019-02-11T13:20:18.083Z,2.60
2019-02-11T13:22:46.507Z,6.90
2019-02-11T13:25:16.997Z,2.20
2019-02-11T13:27:45.337Z,2.33
2019-02-11T13:30:22.795Z,4.13
2019-02-11T13:32:51.043Z,1.87
2019-02-11T13:35:19.412Z,2.17
2019-02-11T13:37:47.655Z,3.10
2019-02-11T13:40:16.137Z,2.67
2019-02-11T13:42:44.642Z,4.47
2019-02-11T13:45:26.252Z,3.37
2019-02-11T13:48:01.837Z,2.07
2019-02-11T13:50:48.075Z,3.20
2019-02-11T13:53:24.742Z,3.57
2019-02-11T13:55:57.642Z,2.50
2019-02-11T13:58:41.238Z,3.03
2019-02-11T14:01:17.160Z,4.77
2019-02-11T14:03:54.917Z,4.77
2019-02-11T14:06:35.275Z,2.50
2019-02-11T14:09:13.890Z,4.83
2019-02-11T14:11:42.217Z,5.00
2019-02-11T14:14:21.299Z,3.43
2019-02-11T14:16:59.091Z,3.90
2019-02-11T14:19:41.934Z,2.67
2019-02-11T14:22:17.668Z,2.90
2019-02-11T14:24:52.880Z,1.80
2019-02-11T14:27:24.839Z,2.57
2019-02-11T14:30:06.709Z,1.97
2019-02-11T14:32:42.399Z,2.63
2019-02-11T14:35:27.405Z,3.93
2019-02-11T14:38:06.607Z,4.37
2019-02-11T14:40:43.863Z,3.23
2019-02-11T14:43:15.778Z,2.60
2019-02-11T14:45:50.976Z,2.53
2019-02-11T14:48:27.638Z,4.23
2019-02-11T14:50:57.247Z,2.60
2019-02-11T14:53:43.121Z,4.40
2019-02-11T14:56:33.977Z,3.60
2019-02-11T14:59:16.955Z,3.97
2019-02-11T15:01:49.347Z,3.13
2019-02-11T15:04:20.616Z,1.73
2019-02-11T15:07:11.100Z,4.30
2019-02-11T15:09:47.636Z,1.80
2019-02-11T15:12:27.292Z,4.53
2019-02-11T15:14:58.745Z,5.57
2019-02-11T15:17:37.142Z,3.97
2019-02-11T15:20:16.164Z,2.20
2019-02-11T15:22:51.875Z,2.13
2019-02-11T15:25:20.151Z,4.20
2019-02-11T15:27:53.065Z,2.00
2019-02-11T15:30:24.170Z,2.43
2019-02-11T15:33:01.841Z,2.50
2019-02-11T15:35:35.324Z,5.43
2019-02-11T15:38:13.785Z,5.70
2019-02-11T15:40:46.640Z,3.00
2019-02-11T15:43:30.824Z,6.47
2019-02-11T15:46:15.350Z,3.00
2019-02-11T15:48:53.888Z,4.30
2019-02-11T15:51:34.614Z,2.80
2019-02-11T15:54:08.253Z,2.43
2019-02-11T15:56:39.802Z,2.83
2019-02-11T15:59:17.868Z,4.93
2019-02-11T16:01:59.714Z,3.57
2019-02-11T16:04:34.314Z,3.30
2019-02-11T16:07:17.902Z,4.10
2019-02-11T16:09:53.352Z,3.07
2019-02-11T16:12:23.157Z,6.10
2019-02-11T16:14:54.733Z,5.20
2019-02-11T16:17:39.413Z,2.67
2019-02-11T16:20:14.608Z,5.20
2019-02-11T16:22:57.913Z,5.53
2019-02-11T16:25:26.259Z,6.67
2019-02-11T16:27:57.934Z,4.43
2019-02-11T16:30:35.295Z,4.00
2019-02-11T16:33:13.356Z,4.13
2019-02-11T16:35:58.129Z,6.30
2019-02-11T16:38:27.996Z,3.07
2019-02-11T16:41:06.745Z,5.10
2019-02-11T16:43:40.434Z,8.87
2019-02-11T16:46:19.125Z,3.90
2019-02-11T16:49:02.709Z,4.33
2019-02-11T16:51:40.341Z,6.57
2019-02-11T16:54:22.280Z,6.10
2019-02-11T16:56:59.181Z,8.20
2019-02-11T16:59:41.513Z,6.13
2019-02-11T17:02:09.008Z,4.63
2019-02-11T17:07:42.201Z,4.90
2019-02-11T17:10:24.382Z,4.43
2019-02-11T17:12:55.063Z,6.73
2019-02-11T17:15:50.736Z,4.73
2019-02-11T17:18:19.231Z,5.37
2019-02-11T17:24:46.625Z,15.87
2019-02-11T17:27:20.549Z,6.27
2019-02-11T17:29:53.592Z,5.73
2019-02-11T17:32:29.627Z,6.43
2019-02-11T17:35:06.473Z,6.67
2019-02-11T17:37:47.904Z,5.33
2019-02-11T17:40:21.211Z,6.13
2019-02-11T17:43:06.312Z,6.07
2019-02-11T17:45:43.747Z,6.30
2019-02-11T17:48:23.714Z,7.80
2019-02-11T17:50:55.174Z,5.23
2019-02-11T17:53:50.245Z,6.73
2019-02-11T17:56:29.850Z,6.23
2019-02-11T17:59:12.486Z,6.37
2019-02-11T18:01:59.335Z,7.90
2019-02-11T18:04:27.731Z,7.07
2019-02-11T18:07:01.365Z,7.40
2019-02-11T18:09:31.374Z,8.50
2019-02-11T18:12:07.971Z,10.80
2019-02-11T18:14:45.682Z,8.90
2019-02-11T18:17:22.192Z,11.30
2019-02-11T18:19:52.175Z,9.67
2019-02-11T18:22:21.994Z,7.33
2019-02-11T18:25:03.156Z,8.03
2019-02-11T18:27:39.663Z,10.43
2019-02-11T18:30:17.514Z,11.63
2019-02-11T18:32:50.185Z,8.80
2019-02-11T18:35:20.198Z,7.77
2019-02-11T18:37:53.542Z,8.17
2019-02-11T18:40:27.343Z,8.00
2019-02-11T18:42:59.486Z,7.17
2019-02-11T18:45:30.001Z,8.30
2019-02-11T18:48:03.036Z,7.57
2019-02-11T18:50:38.521Z,9.93
2019-02-11T18:53:21.315Z,9.97
2019-02-11T18:55:54.763Z,8.77
2019-02-11T18:58:30.503Z,8.27
2019-02-11T19:01:05.096Z,7.40
2019-02-11T19:03:41.971Z,7.77
2019-02-11T19:06:18.453Z,9.37
2019-02-11T19:08:53.984Z,7.43
2019-02-11T19:11:25.462Z,8.10
2019-02-11T19:14:00.408Z,7.90
2019-02-11T19:16:37.840Z,8.07
2019-02-11T19:19:20.453Z,9.50
2019-02-11T19:21:53.579Z,9.27
2019-02-11T19:27:59.153Z,6.93
2019-02-11T19:30:43.389Z,7.13
2019-02-11T19:33:08.841Z,11.87
2019-02-11T19:35:37.139Z,9.10
2019-02-11T19:41:11.762Z,8.30
2019-02-11T19:43:42.515Z,11.60
2019-02-11T19:46:18.142Z,12.47
2019-02-11T19:48:56.731Z,12.00
2019-02-11T19:51:28.892Z,13.60
2019-02-11T19:54:29.732Z,9.10
2019-02-11T19:57:16.936Z,10.33
2019-02-11T20:02:28.756Z,10.90
2019-02-11T20:05:01.271Z,10.33
2019-02-11T20:07:41.168Z,10.40
2019-02-11T20:10:25.875Z,12.70
2019-02-11T20:13:06.152Z,11.80
2019-02-11T20:15:33.055Z,10.03
2019-02-11T20:18:10.712Z,7.47
2019-02-11T20:20:46.949Z,10.80
2019-02-11T20:26:18.207Z,12.30
2019-02-11T20:28:48.116Z,9.50
2019-02-11T20:31:19.287Z,12.13
2019-02-11T20:34:07.950Z,8.00
2019-02-11T20:36:42.605Z,8.77
2019-02-11T20:39:13.849Z,10.27
2019-02-11T20:41:55.704Z,12.87
2019-02-11T20:44:23.708Z,11.60
2019-02-11T20:47:07.185Z,12.63
2019-02-11T20:49:41.898Z,13.30
2019-02-11T20:52:23.137Z,10.43
2019-02-11T20:54:59.571Z,12.97
2019-02-11T20:57:30.226Z,9.30
2019-02-11T21:00:05.059Z,8.47
2019-02-11T21:02:42.720Z,9.17
2019-02-11T21:05:18.478Z,9.80
2019-02-11T21:07:53.752Z,8.37
2019-02-11T21:10:25.262Z,8.30
2019-02-11T21:12:59.251Z,8.20
2019-02-11T21:15:37.927Z,9.13
2019-02-11T21:18:14.738Z,10.67
2019-02-11T21:20:51.228Z,8.83
2019-02-11T21:23:40.097Z,15.80
2019-02-11T21:26:03.602Z,15.70
2019-02-11T21:28:54.052Z,11.10
2019-02-11T21:31:40.167Z,10.90
2019-02-11T21:34:22.730Z,12.23
2019-02-11T21:37:00.214Z,8.47
2019-02-11T21:39:30.523Z,9.77
2019-02-11T21:42:09.569Z,10.67
2019-02-11T21:45:10.176Z,9.63
2019-02-11T21:47:15.852Z,10.40
2019-02-11T21:50:11.144Z,8.40
2019-02-11T21:52:47.650Z,11.27
2019-02-11T21:55:32.446Z,16.03
2019-02-11T21:58:03.915Z,10.03
2019-02-11T22:00:35.883Z,14.30
2019-02-11T22:03:05.843Z,11.67
2019-02-11T22:05:41.483Z,12.40
2019-02-11T22:08:25.306Z,11.00
2019-02-11T22:12:41.984Z,10.53
2019-02-11T22:13:52.369Z,9.97
2019-02-11T22:16:34.652Z,9.93
2019-02-11T22:19:15.692Z,12.43
2019-02-11T22:22:05.400Z,8.60
2019-02-11T22:24:39.726Z,12.33
2019-02-11T22:27:17.729Z,13.60
2019-02-11T22:29:53.307Z,10.33
2019-02-11T22:32:39.747Z,13.37
2019-02-11T22:35:11.606Z,7.73
2019-02-11T22:40:38.455Z,7.17
2019-02-11T22:43:11.574Z,13.73
2019-02-11T22:45:41.467Z,10.10
2019-02-11T22:48:16.038Z,10.33
2019-02-11T22:50:54.650Z,7.60
2019-02-11T22:53:27.637Z,14.33
2019-02-11T22:56:00.322Z,6.80
2019-02-11T22:58:38.996Z,8.93
2019-02-11T23:01:18.288Z,11.47
2019-02-11T23:03:53.792Z,9.33
2019-02-11T23:06:23.626Z,16.20
2019-02-11T23:09:17.357Z,10.53
2019-02-11T23:11:50.859Z,10.43
2019-02-11T23:14:29.052Z,10.50
2019-02-11T23:17:00.652Z,13.73
2019-02-11T23:19:30.517Z,11.50
2019-02-11T23:21:59.176Z,9.90
2019-02-11T23:24:27.647Z,8.93
2019-02-11T23:26:55.930Z,10.03
2019-02-11T23:29:24.292Z,10.40
2019-02-11T23:31:52.639Z,7.80
2019-02-11T23:34:20.897Z,13.77
2019-02-11T23:36:49.204Z,9.10
2019-02-11T23:39:17.655Z,12.43
2019-02-11T23:41:45.957Z,12.17
2019-02-11T23:44:15.015Z,12.93
2019-02-11T23:46:43.300Z,9.23
2019-02-11T23:49:13.202Z,13.03
2019-02-11T23:51:41.502Z,11.80
2019-02-11T23:54:09.807Z,11.73
2019-02-11T23:56:38.282Z,14.97
2019-02-11T23:59:06.601Z,10.50
